createdAt,value
2018-07-10T00:02:48.952Z,17.17
2018-07-10T00:07:31.353Z,14.43
2018-07-10T00:10:15.646Z,17.67
2018-07-10T00:12:44.152Z,15.30
2018-07-10T00:15:12.611Z,13.23
2018-07-10T00:17:41.138Z,15.70
2018-07-10T00:20:09.593Z,13.93
2018-07-10T00:22:38.034Z,13.20
2018-07-10T00:25:06.554Z,14.77
2018-07-10T00:27:35.067Z,15.63
2018-07-10T00:30:03.688Z,15.10
2018-07-10T00:32:32.320Z,14.97
2018-07-10T00:35:00.904Z,16.20
2018-07-10T00:37:29.351Z,20.47
2018-07-10T00:39:57.854Z,16.50
2018-07-10T00:42:26.420Z,15.03
2018-07-10T00:44:54.863Z,15.10
2018-07-10T00:47:23.428Z,15.10
2018-07-10T00:49:51.941Z,13.70
2018-07-10T00:52:30.967Z,14.73
2018-07-10T00:54:59.962Z,15.17
2018-07-10T00:57:29.692Z,14.67
2018-07-10T00:59:58.611Z,15.43
2018-07-10T01:02:27.129Z,13.77
2018-07-10T01:04:55.772Z,14.50
2018-07-10T01:07:24.356Z,13.97
2018-07-10T01:09:52.819Z,14.20
2018-07-10T01:12:21.274Z,14.03
2018-07-10T01:14:49.755Z,14.97
2018-07-10T01:17:18.355Z,15.07
2018-07-10T01:19:46.832Z,17.00
2018-07-10T01:22:15.362Z,13.67
2018-07-10T01:24:43.852Z,13.57
2018-07-10T01:27:12.541Z,16.10
2018-07-10T01:29:46.295Z,12.80
2018-07-10T01:32:14.751Z,12.93
2018-07-10T01:34:43.259Z,16.87
2018-07-10T01:37:11.759Z,13.10
2018-07-10T01:39:40.279Z,18.27
2018-07-10T01:42:08.761Z,14.27
2018-07-10T01:44:37.277Z,13.80
2018-07-10T01:47:05.891Z,17.90
2018-07-10T01:49:34.444Z,14.13
2018-07-10T01:52:03.026Z,13.47
2018-07-10T01:54:31.537Z,13.47
2018-07-10T01:57:00.018Z,14.03
2018-07-10T01:59:28.564Z,13.40
2018-07-10T02:01:57.023Z,14.10
2018-07-10T02:04:25.502Z,12.40
2018-07-10T02:06:53.978Z,12.67
2018-07-10T02:09:22.571Z,10.97
2018-07-10T02:11:51.022Z,10.07
2018-07-10T02:14:19.458Z,16.73
2018-07-10T02:16:47.966Z,14.07
2018-07-10T02:19:16.495Z,9.00
2018-07-10T02:21:45.067Z,9.77
2018-07-10T02:24:18.564Z,8.67
2018-07-10T02:26:47.116Z,8.93
2018-07-10T02:29:15.613Z,9.33
2018-07-10T02:31:50.487Z,8.57
2018-07-10T02:34:19.514Z,9.40
2018-07-10T02:36:48.149Z,10.37
2018-07-10T02:39:17.033Z,9.97
2018-07-10T02:41:45.546Z,9.37
2018-07-10T02:44:14.027Z,9.43
2018-07-10T02:46:42.505Z,9.30
2018-07-10T02:49:19.327Z,8.03
2018-07-10T02:51:54.194Z,11.57
2018-07-10T02:54:25.203Z,8.30
2018-07-10T02:56:55.073Z,7.23
2018-07-10T02:59:25.915Z,9.17
2018-07-10T03:01:54.430Z,7.80
2018-07-10T03:04:22.902Z,8.60
2018-07-10T03:06:51.500Z,9.77
2018-07-10T03:09:20.066Z,8.93
2018-07-10T03:11:48.577Z,7.33
2018-07-10T03:14:17.031Z,7.63
2018-07-10T03:16:45.739Z,8.70
2018-07-10T03:19:14.286Z,9.33
2018-07-10T03:21:42.727Z,7.73
2018-07-10T03:24:11.156Z,8.57
2018-07-10T03:26:39.667Z,8.83
2018-07-10T03:29:08.115Z,11.43
2018-07-10T03:31:36.524Z,10.63
2018-07-10T03:34:04.962Z,10.63
2018-07-10T03:36:33.406Z,13.23
2018-07-10T03:39:02.683Z,10.57
2018-07-10T03:41:31.205Z,8.20
2018-07-10T03:43:59.668Z,7.83
2018-07-10T03:46:28.605Z,10.37
2018-07-10T03:48:57.260Z,8.30
2018-07-10T03:51:27.038Z,9.20
2018-07-10T03:53:55.620Z,12.63
2018-07-10T03:56:24.147Z,11.07
2018-07-10T03:58:55.304Z,9.53
2018-07-10T04:01:25.643Z,8.93
2018-07-10T04:03:54.889Z,8.77
2018-07-10T04:06:23.611Z,8.30
2018-07-10T04:08:52.103Z,8.37
2018-07-10T04:11:20.843Z,8.47
2018-07-10T04:13:49.401Z,8.13
2018-07-10T04:16:17.884Z,8.70
2018-07-10T04:18:46.454Z,9.57
2018-07-10T04:21:22.728Z,8.30
2018-07-10T04:24:27.527Z,9.83
2018-07-10T04:28:05.590Z,11.13
2018-07-10T04:30:41.554Z,10.37
2018-07-10T04:33:10.829Z,10.80
2018-07-10T04:35:39.455Z,11.70
2018-07-10T04:38:08.306Z,8.37
2018-07-10T04:40:36.959Z,8.13
2018-07-10T04:43:08.350Z,9.60
2018-07-10T04:45:42.809Z,9.43
2018-07-10T04:48:19.230Z,9.00
2018-07-10T04:50:51.968Z,12.87
2018-07-10T04:53:37.450Z,9.63
2018-07-10T04:56:06.988Z,10.07
2018-07-10T04:58:35.510Z,8.40
2018-07-10T05:01:04.264Z,7.33
2018-07-10T05:03:33.261Z,11.07
2018-07-10T05:06:06.393Z,8.13
2018-07-10T05:08:35.274Z,10.20
2018-07-10T05:11:03.990Z,7.07
2018-07-10T05:13:32.495Z,7.43
2018-07-10T05:16:06.001Z,6.40
2018-07-10T05:18:35.253Z,7.13
2018-07-10T05:21:10.254Z,8.13
2018-07-10T05:23:38.410Z,9.90
2018-07-10T05:26:09.024Z,17.27
2018-07-10T05:28:37.537Z,7.13
2018-07-10T05:31:06.713Z,8.83
2018-07-10T05:33:35.223Z,8.87
2018-07-10T05:36:04.111Z,7.20
2018-07-10T05:38:36.732Z,7.70
2018-07-10T05:41:05.857Z,9.90
2018-07-10T05:43:39.041Z,8.07
2018-07-10T05:46:08.152Z,6.10
2018-07-10T05:48:37.174Z,6.80
2018-07-10T05:51:05.726Z,8.47
2018-07-10T05:53:34.312Z,8.90
2018-07-10T05:56:02.884Z,7.60
2018-07-10T05:58:31.455Z,6.43
2018-07-10T06:00:59.908Z,7.87
2018-07-10T06:03:28.372Z,9.30
2018-07-10T06:05:56.475Z,7.07
2018-07-10T06:08:24.953Z,6.47
2018-07-10T06:10:53.491Z,5.80
2018-07-10T06:13:22.080Z,7.00
2018-07-10T06:15:50.727Z,5.17
2018-07-10T06:18:19.409Z,5.80
2018-07-10T06:20:48.120Z,8.73
2018-07-10T06:23:16.787Z,6.03
2018-07-10T06:25:45.370Z,10.00
2018-07-10T06:28:19.878Z,9.20
2018-07-10T06:30:48.375Z,10.80
2018-07-10T06:33:25.387Z,7.87
2018-07-10T06:36:05.387Z,11.07
2018-07-10T06:38:34.713Z,11.07
2018-07-10T06:41:03.278Z,10.03
2018-07-10T06:43:38.451Z,8.23
2018-07-10T06:46:07.011Z,10.30
2018-07-10T06:48:41.346Z,7.87
2018-07-10T06:51:14.183Z,6.00
2018-07-10T06:53:42.905Z,13.40
2018-07-10T06:56:11.799Z,15.80
2018-07-10T06:58:40.314Z,9.60
2018-07-10T07:01:08.762Z,8.13
2018-07-10T07:03:37.236Z,10.10
2018-07-10T07:06:05.725Z,7.97
2018-07-10T07:08:34.201Z,5.60
2018-07-10T07:11:02.632Z,15.40
2018-07-10T07:13:31.112Z,9.93
2018-07-10T07:15:59.678Z,5.33
2018-07-10T07:18:28.342Z,7.03
2018-07-10T07:20:56.855Z,5.27
2018-07-10T07:23:25.468Z,8.17
2018-07-10T07:25:54.041Z,9.20
2018-07-10T07:28:22.512Z,7.70
2018-07-10T07:30:51.148Z,9.07
2018-07-10T07:33:19.610Z,5.40
2018-07-10T07:35:48.074Z,7.50
2018-07-10T07:38:17.889Z,7.10
2018-07-10T07:40:46.407Z,5.93
2018-07-10T07:43:14.919Z,9.37
2018-07-10T07:45:43.637Z,6.17
2018-07-10T07:48:12.715Z,6.47
2018-07-10T07:50:41.554Z,9.33
2018-07-10T07:53:10.160Z,7.47
2018-07-10T07:55:38.808Z,4.97
2018-07-10T07:58:07.471Z,6.23
2018-07-10T08:00:36.076Z,5.17
2018-07-10T08:03:04.861Z,4.30
2018-07-10T08:05:33.400Z,6.63
2018-07-10T08:08:01.938Z,4.13
2018-07-10T08:10:30.563Z,9.07
2018-07-10T08:12:59.268Z,6.80
2018-07-10T08:15:27.787Z,4.80
2018-07-10T08:17:56.932Z,8.47
2018-07-10T08:20:25.563Z,5.07
2018-07-10T08:22:54.142Z,5.83
2018-07-10T08:25:24.525Z,3.50
2018-07-10T08:27:53.076Z,4.57
2018-07-10T08:30:21.304Z,6.60
2018-07-10T08:32:51.091Z,6.93
2018-07-10T08:35:20.120Z,11.33
2018-07-10T08:37:48.790Z,5.67
2018-07-10T08:40:17.613Z,6.33
2018-07-10T08:42:46.376Z,7.30
2018-07-10T08:45:15.174Z,6.63
2018-07-10T08:47:44.187Z,12.17
2018-07-10T08:50:12.886Z,6.90
2018-07-10T08:52:41.709Z,4.97
2018-07-10T08:55:10.384Z,9.43
2018-07-10T08:57:39.108Z,6.67
2018-07-10T09:00:07.833Z,4.40
2018-07-10T09:02:36.474Z,8.83
2018-07-10T09:05:05.119Z,4.77
2018-07-10T09:07:33.750Z,3.87
2018-07-10T09:10:02.426Z,10.00
2018-07-10T09:12:31.142Z,5.70
2018-07-10T09:14:59.756Z,5.93
2018-07-10T09:17:28.966Z,6.67
2018-07-10T09:20:00.034Z,4.37
2018-07-10T09:22:28.905Z,7.07
2018-07-10T09:24:58.079Z,4.50
2018-07-10T09:27:26.838Z,5.43
2018-07-10T09:29:55.542Z,5.70
2018-07-10T09:32:29.318Z,9.57
2018-07-10T09:34:58.866Z,4.43
2018-07-10T09:37:35.549Z,6.63
2018-07-10T09:40:09.571Z,5.13
2018-07-10T09:42:49.459Z,3.90
2018-07-10T09:45:18.298Z,4.20
2018-07-10T09:47:46.855Z,7.17
2018-07-10T09:50:15.389Z,4.10
2018-07-10T09:52:44.159Z,5.27
2018-07-10T09:55:12.933Z,8.47
2018-07-10T09:57:42.921Z,3.47
2018-07-10T10:00:11.514Z,4.13
2018-07-10T10:02:40.605Z,3.40
2018-07-10T10:05:09.174Z,5.70
2018-07-10T10:07:37.771Z,6.13
2018-07-10T10:10:06.353Z,7.30
2018-07-10T10:12:34.963Z,3.27
2018-07-10T10:15:03.860Z,2.90
2018-07-10T10:17:32.628Z,4.47
2018-07-10T10:20:01.229Z,3.03
2018-07-10T10:22:31.689Z,3.40
2018-07-10T10:25:01.728Z,6.17
2018-07-10T10:27:31.029Z,4.83
2018-07-10T10:30:00.690Z,3.97
2018-07-10T10:32:29.452Z,6.37
2018-07-10T10:34:58.300Z,2.70
2018-07-10T10:37:27.161Z,5.57
2018-07-10T10:39:56.591Z,4.30
2018-07-10T10:42:27.012Z,4.87
2018-07-10T10:44:59.041Z,2.73
2018-07-10T10:47:27.814Z,4.67
2018-07-10T10:49:58.641Z,2.47
2018-07-10T10:52:27.916Z,3.97
2018-07-10T10:54:56.567Z,2.93
2018-07-10T10:57:27.509Z,3.83
2018-07-10T10:59:56.174Z,4.13
2018-07-10T11:02:24.792Z,4.20
2018-07-10T11:04:53.781Z,2.90
2018-07-10T11:07:23.208Z,3.67
2018-07-10T11:09:51.920Z,6.40
2018-07-10T11:12:21.135Z,5.47
2018-07-10T11:14:49.811Z,10.10
2018-07-10T11:17:31.571Z,2.60
2018-07-10T11:20:10.274Z,3.10
2018-07-10T11:22:47.694Z,5.87
2018-07-10T11:25:15.921Z,6.33
2018-07-10T11:27:56.048Z,4.23
2018-07-10T11:30:24.741Z,3.40
2018-07-10T11:32:53.342Z,2.60
2018-07-10T11:35:22.443Z,3.43
2018-07-10T11:37:51.230Z,2.20
2018-07-10T11:40:20.074Z,5.30
2018-07-10T11:42:48.886Z,6.73
2018-07-10T11:45:17.978Z,5.13
2018-07-10T11:47:46.506Z,4.07
2018-07-10T11:50:15.757Z,4.73
2018-07-10T11:52:44.498Z,3.33
2018-07-10T11:55:13.131Z,6.47
2018-07-10T11:57:41.999Z,3.37
2018-07-10T12:00:10.326Z,2.93
2018-07-10T12:02:44.424Z,7.23
2018-07-10T12:05:15.641Z,3.63
2018-07-10T12:07:45.921Z,3.20
2018-07-10T12:10:21.920Z,4.60
2018-07-10T12:12:51.426Z,5.00
2018-07-10T12:15:20.430Z,5.07
2018-07-10T12:17:51.829Z,2.87
2018-07-10T12:20:52.643Z,3.23
2018-07-10T12:23:21.236Z,4.87
2018-07-10T12:25:49.961Z,3.93
2018-07-10T12:28:18.726Z,4.40
2018-07-10T12:30:47.373Z,3.60
2018-07-10T12:33:16.036Z,6.93
2018-07-10T12:35:44.622Z,5.40
2018-07-10T12:38:13.162Z,4.87
2018-07-10T12:40:41.777Z,3.27
2018-07-10T12:43:10.329Z,4.60
2018-07-10T12:45:38.923Z,5.30
2018-07-10T12:48:07.504Z,5.77
2018-07-10T12:50:36.119Z,5.80
2018-07-10T12:53:04.789Z,3.80
2018-07-10T12:55:35.050Z,8.03
2018-07-10T12:58:03.819Z,7.57
2018-07-10T13:00:33.361Z,8.97
2018-07-10T13:03:02.580Z,4.07
2018-07-10T13:05:37.962Z,4.83
2018-07-10T13:08:06.657Z,6.43
2018-07-10T13:10:35.439Z,4.03
2018-07-10T13:13:04.245Z,3.13
2018-07-10T13:15:32.911Z,8.77
2018-07-10T13:18:01.593Z,3.77
2018-07-10T13:20:30.368Z,4.50
2018-07-10T13:22:59.217Z,3.93
2018-07-10T13:25:28.066Z,5.43
2018-07-10T13:27:57.161Z,5.23
2018-07-10T13:30:26.076Z,3.90
2018-07-10T13:32:54.703Z,6.20
2018-07-10T13:35:23.335Z,4.60
2018-07-10T13:37:52.011Z,7.73
2018-07-10T13:40:20.852Z,7.43
2018-07-10T13:42:56.375Z,8.50
2018-07-10T13:45:26.307Z,9.80
2018-07-10T13:47:55.266Z,10.67
2018-07-10T13:50:25.806Z,9.80
2018-07-10T13:52:56.428Z,14.33
2018-07-10T13:55:25.505Z,10.97
2018-07-10T13:58:07.393Z,9.10
2018-07-10T14:00:38.829Z,8.63
2018-07-10T14:03:07.601Z,9.97
2018-07-10T14:05:35.851Z,8.20
2018-07-10T14:08:04.700Z,7.77
2018-07-10T14:10:34.209Z,7.13
2018-07-10T14:13:03.564Z,9.53
2018-07-10T14:15:32.215Z,7.90
2018-07-10T14:18:02.151Z,7.80
2018-07-10T14:20:41.336Z,6.50
2018-07-10T14:23:10.257Z,6.00
2018-07-10T14:25:39.117Z,5.30
2018-07-10T14:28:07.769Z,5.30
2018-07-10T14:30:36.944Z,4.67
2018-07-10T14:33:05.899Z,4.77
2018-07-10T14:35:35.134Z,5.03
2018-07-10T14:38:05.896Z,5.63
2018-07-10T14:40:37.894Z,5.77
2018-07-10T14:43:06.484Z,5.80
2018-07-10T14:45:36.716Z,6.13
2018-07-10T14:48:06.400Z,5.67
2018-07-10T14:50:35.340Z,5.80
2018-07-10T14:53:05.459Z,6.00
2018-07-10T14:55:35.106Z,5.17
2018-07-10T14:58:04.036Z,6.20
2018-07-10T15:00:33.049Z,6.73
2018-07-10T15:03:01.893Z,5.53
2018-07-10T15:05:30.540Z,6.47
2018-07-10T15:07:59.354Z,5.67
2018-07-10T15:10:27.927Z,5.70
2018-07-10T15:12:56.708Z,5.97
2018-07-10T15:15:25.523Z,7.27
2018-07-10T15:17:59.641Z,7.57
2018-07-10T15:20:28.311Z,6.60
2018-07-10T15:22:57.138Z,8.80
2018-07-10T15:25:26.002Z,7.20
2018-07-10T15:27:54.881Z,7.33
2018-07-10T15:30:23.642Z,8.50
2018-07-10T15:32:52.372Z,6.80
2018-07-10T15:35:21.036Z,11.07
2018-07-10T15:37:49.764Z,9.00
2018-07-10T15:40:18.569Z,8.17
2018-07-10T15:42:47.282Z,7.17
2018-07-10T15:45:16.001Z,6.83
2018-07-10T15:47:44.988Z,10.17
2018-07-10T15:50:13.635Z,7.00
2018-07-10T15:52:42.392Z,7.30
2018-07-10T15:55:11.117Z,7.57
2018-07-10T15:57:39.779Z,7.87
2018-07-10T16:00:08.626Z,8.10
2018-07-10T16:02:37.504Z,9.73
2018-07-10T16:05:06.889Z,10.00
2018-07-10T16:07:36.201Z,8.87
2018-07-10T16:10:04.851Z,8.87
2018-07-10T16:12:34.108Z,8.83
2018-07-10T16:15:03.272Z,9.13
2018-07-10T16:17:32.198Z,8.67
2018-07-10T16:20:08.193Z,9.43
2018-07-10T16:22:39.197Z,9.63
2018-07-10T16:25:11.026Z,13.30
2018-07-10T16:27:42.740Z,9.30
2018-07-10T16:30:13.481Z,10.77
2018-07-10T16:32:42.679Z,9.63
2018-07-10T16:35:12.008Z,10.43
2018-07-10T16:37:41.177Z,9.33
2018-07-10T16:40:09.945Z,9.97
2018-07-10T16:42:43.849Z,10.37
2018-07-10T16:45:20.946Z,10.63
2018-07-10T16:47:59.296Z,9.87
2018-07-10T16:50:30.303Z,10.50
2018-07-10T16:53:00.153Z,9.60
2018-07-10T16:55:29.528Z,10.77
2018-07-10T16:57:58.236Z,10.60
2018-07-10T17:00:29.193Z,11.00
2018-07-10T17:02:58.772Z,10.43
2018-07-10T17:05:28.042Z,10.63
2018-07-10T17:07:56.879Z,10.23
2018-07-10T17:10:25.658Z,9.63
2018-07-10T17:12:54.500Z,10.40
2018-07-10T17:15:23.204Z,10.43
2018-07-10T17:17:51.982Z,9.80
2018-07-10T17:20:20.970Z,10.93
2018-07-10T17:22:52.508Z,11.07
2018-07-10T17:25:21.281Z,10.90
2018-07-10T17:27:51.084Z,10.00
2018-07-10T17:30:19.975Z,10.30
2018-07-10T17:32:48.678Z,11.07
2018-07-10T17:35:17.425Z,11.97
2018-07-10T17:37:48.186Z,10.27
2018-07-10T17:40:17.245Z,10.00
2018-07-10T17:42:47.438Z,10.37
2018-07-10T17:45:22.513Z,10.37
2018-07-10T17:47:51.592Z,10.93
2018-07-10T17:50:20.086Z,10.60
2018-07-10T17:52:48.470Z,10.90
2018-07-10T17:55:17.336Z,10.60
2018-07-10T17:57:46.715Z,10.73
2018-07-10T18:00:15.696Z,12.27
2018-07-10T18:02:44.580Z,11.60
2018-07-10T18:05:13.610Z,13.70
2018-07-10T18:07:42.869Z,12.50
2018-07-10T18:10:12.531Z,11.73
2018-07-10T18:12:41.636Z,11.80
2018-07-10T18:15:10.886Z,13.10
2018-07-10T18:17:39.937Z,12.87
2018-07-10T18:20:08.976Z,13.17
2018-07-10T18:22:38.497Z,13.13
2018-07-10T18:25:08.203Z,13.57
2018-07-10T18:27:37.256Z,13.90
2018-07-10T18:30:07.087Z,17.03
2018-07-10T18:32:36.255Z,15.20
2018-07-10T18:35:05.739Z,13.23
2018-07-10T18:37:36.492Z,12.63
2018-07-10T18:40:05.663Z,12.43
2018-07-10T18:42:34.589Z,12.63
2018-07-10T18:45:04.388Z,12.67
2018-07-10T18:47:33.787Z,13.43
2018-07-10T18:50:05.232Z,13.07
2018-07-10T18:52:36.122Z,12.80
2018-07-10T18:55:06.686Z,12.47
2018-07-10T18:58:01.654Z,12.20
2018-07-10T19:00:39.510Z,13.67
2018-07-10T19:03:13.525Z,12.40
2018-07-10T19:05:48.326Z,12.53
2018-07-10T19:08:18.160Z,12.77
2018-07-10T19:10:48.642Z,11.00
2018-07-10T19:13:18.472Z,11.57
2018-07-10T19:15:48.493Z,11.00
2018-07-10T19:18:18.167Z,12.43
2018-07-10T19:20:56.632Z,14.33
2018-07-10T19:23:44.680Z,37.03
2018-07-10T19:26:14.319Z,14.50
2018-07-10T19:28:43.471Z,13.37
2018-07-10T19:31:15.506Z,13.50
2018-07-10T19:33:46.028Z,12.73
2018-07-10T19:36:15.660Z,11.70
2018-07-10T19:38:44.907Z,15.77
2018-07-10T19:41:14.044Z,16.50
2018-07-10T19:43:43.246Z,14.10
2018-07-10T19:46:12.710Z,13.07
2018-07-10T19:48:48.903Z,15.00
2018-07-10T19:51:18.629Z,13.67
2018-07-10T19:53:53.435Z,14.20
2018-07-10T19:56:23.393Z,15.13
2018-07-10T19:58:55.311Z,13.70
2018-07-10T20:01:38.434Z,15.47
2018-07-10T20:04:43.737Z,13.33
2018-07-10T20:07:22.142Z,23.30
2018-07-10T20:09:56.630Z,15.00
2018-07-10T20:12:35.140Z,15.00
2018-07-10T20:15:10.814Z,13.47
2018-07-10T20:17:45.634Z,13.33
2018-07-10T20:20:18.189Z,18.77
2018-07-10T20:23:11.726Z,14.77
2018-07-10T20:27:49.548Z,12.93
2018-07-10T20:30:29.633Z,11.33
2018-07-10T20:34:07.788Z,12.60
2018-07-10T20:36:39.502Z,12.40
2018-07-10T20:39:08.459Z,12.20
2018-07-10T20:41:43.934Z,13.40
2018-07-10T20:44:14.125Z,12.83
2018-07-10T20:46:48.139Z,15.80
2018-07-10T20:49:18.298Z,14.47
2018-07-10T20:51:58.219Z,15.03
2018-07-10T20:54:42.772Z,16.37
2018-07-10T20:58:22.452Z,14.30
2018-07-10T21:01:05.889Z,13.53
2018-07-10T21:03:43.511Z,16.53
2018-07-10T21:06:20.266Z,15.87
2018-07-10T21:09:21.716Z,16.07
2018-07-10T21:12:02.560Z,15.97
2018-07-10T21:14:40.399Z,17.03
2018-07-10T21:17:11.786Z,19.40
2018-07-10T21:19:57.035Z,20.70
2018-07-10T21:22:35.657Z,17.70
2018-07-10T21:25:12.059Z,20.73
2018-07-10T21:27:45.948Z,21.73
2018-07-10T21:30:27.260Z,21.50
2018-07-10T21:33:00.391Z,21.20
2018-07-10T21:35:34.004Z,22.90
2018-07-10T21:38:42.537Z,23.17
2018-07-10T21:41:30.218Z,22.90
2018-07-10T21:44:08.024Z,24.83
2018-07-10T21:46:47.311Z,22.70
2018-07-10T21:49:36.847Z,22.27
2018-07-10T21:52:05.939Z,24.77
2018-07-10T21:54:34.685Z,28.80
2018-07-10T21:57:03.641Z,24.73
2018-07-10T21:59:33.056Z,26.03
2018-07-10T22:02:06.892Z,25.67
2018-07-10T22:04:37.693Z,24.40
2018-07-10T22:07:10.355Z,27.40
2018-07-10T22:09:39.651Z,25.77
2018-07-10T22:12:11.068Z,28.67
2018-07-10T22:14:39.622Z,26.30
2018-07-10T22:17:14.412Z,25.13
2018-07-10T22:19:44.900Z,26.70
2018-07-10T22:22:21.106Z,26.93
2018-07-10T22:24:50.931Z,22.97
2018-07-10T22:27:19.941Z,24.00
2018-07-10T22:29:53.983Z,26.83
2018-07-10T22:32:30.208Z,24.37
2018-07-10T22:34:58.933Z,26.73
2018-07-10T22:37:27.825Z,31.03
2018-07-10T22:39:56.694Z,27.63
2018-07-10T22:42:26.529Z,22.33
2018-07-10T22:44:57.044Z,21.90
2018-07-10T22:47:41.575Z,23.17
2018-07-10T22:50:17.007Z,21.80
2018-07-10T22:52:47.381Z,24.20
2018-07-10T22:55:19.449Z,23.93
2018-07-10T22:57:48.113Z,22.27
2018-07-10T23:00:23.009Z,22.17
2018-07-10T23:02:51.583Z,22.97
2018-07-10T23:05:20.558Z,21.97
2018-07-10T23:07:49.264Z,22.43
2018-07-10T23:10:18.054Z,26.97
2018-07-10T23:12:46.704Z,29.70
2018-07-10T23:15:15.633Z,27.33
2018-07-10T23:17:44.097Z,28.47
2018-07-10T23:20:12.709Z,28.13
2018-07-10T23:22:53.926Z,27.37
2018-07-10T23:25:24.266Z,33.00
2018-07-10T23:28:06.344Z,29.40
2018-07-10T23:30:37.714Z,29.83
2018-07-10T23:33:07.854Z,35.17
2018-07-10T23:35:36.797Z,34.37
2018-07-10T23:39:11.982Z,37.53
2018-07-10T23:41:52.245Z,34.73
2018-07-10T23:44:22.337Z,35.00
2018-07-10T23:47:01.590Z,42.33
2018-07-10T23:49:30.147Z,36.90
2018-07-10T23:52:09.776Z,36.10
2018-07-10T23:54:39.417Z,35.40
2018-07-10T23:57:07.944Z,40.50
2018-07-10T23:59:36.482Z,30.07
